Berryville, Arkansas
Current Conditions -  °F | °C
As of 6:48 AM on Thursday 18 Dec 2014 (Local Time) from KBBG Reporting Station
Light Rain Light Rain  
Wind Chill: 32°   Ceiling: 200
Heat Index: 32°   Visibility: 3mi
Dew Point: 32°   Wind: 0mph
Humidity: 100%   Direction: NA
Pressure: 30.19"   Gusts: NA
Location:  36.36°N, 93.57°W
Report Text: KBBG 181248Z 00000KT 3SM -RA OVC002 00/00 A3019
Loading
Personal Weather Stations






























Interactive Weather Map New forecast layout! Learn more

10-Day Weather Forecast

Advertisements
Track Severe Weather on mobile